createdAt,value
2023-04-10T00:00:37.521Z,2423.00
2023-04-10T00:01:37.565Z,2421.00
2023-04-10T00:02:37.711Z,2426.00
2023-04-10T00:03:37.676Z,2426.00
2023-04-10T00:04:37.622Z,2427.00
2023-04-10T00:05:37.525Z,2427.00
2023-04-10T00:06:37.532Z,2422.00
2023-04-10T00:07:37.500Z,2419.00
2023-04-10T00:08:37.495Z,2416.00
2023-04-10T00:09:37.473Z,2419.00
2023-04-10T00:10:37.456Z,2410.00
2023-04-10T00:11:37.440Z,2412.00
2023-04-10T00:12:37.437Z,2404.00
2023-04-10T00:13:37.403Z,2411.00
2023-04-10T00:14:37.402Z,2399.00
2023-04-10T00:15:37.390Z,2400.00
2023-04-10T00:16:37.446Z,2408.00
2023-04-10T00:17:37.418Z,2405.00
2023-04-10T00:18:37.319Z,2406.00
2023-04-10T00:19:37.307Z,2407.00
2023-04-10T00:20:37.322Z,2404.00
2023-04-10T00:21:37.288Z,2402.00
2023-04-10T00:22:37.261Z,2399.00
2023-04-10T00:23:37.258Z,2403.00
2023-04-10T00:24:37.240Z,2397.00
2023-04-10T00:25:37.217Z,2391.00
2023-04-10T00:26:37.218Z,2394.00
2023-04-10T00:27:37.191Z,2396.00
2023-04-10T00:28:37.190Z,2382.00
2023-04-10T00:29:37.157Z,2388.00
2023-04-10T00:30:37.140Z,2382.00
2023-04-10T00:31:37.158Z,2383.00
2023-04-10T00:32:37.151Z,2383.00
2023-04-10T00:33:37.185Z,2387.00
2023-04-10T00:34:37.219Z,2376.00
2023-04-10T00:35:37.286Z,2383.00
2023-04-10T00:36:37.280Z,2375.00
2023-04-10T00:37:37.317Z,2369.00
2023-04-10T00:38:37.349Z,2375.00
2023-04-10T00:39:37.409Z,2364.00
2023-04-10T00:40:37.416Z,2371.00
2023-04-10T00:41:37.458Z,2366.00
2023-04-10T00:42:37.488Z,2365.00
2023-04-10T00:43:37.529Z,2358.00
2023-04-10T00:44:37.552Z,2362.00
2023-04-10T00:45:37.634Z,2359.00
2023-04-10T00:46:37.647Z,2363.00
2023-04-10T00:47:37.708Z,2356.00
2023-04-10T00:48:37.683Z,2345.00
2023-04-10T00:49:37.724Z,2349.00
2023-04-10T00:50:37.746Z,2340.00
2023-04-10T00:51:37.788Z,2352.00
2023-04-10T00:52:37.825Z,2351.00
2023-04-10T00:53:37.845Z,2348.00
2023-04-10T00:54:37.871Z,2341.00
2023-04-10T00:55:37.910Z,2337.00
2023-04-10T00:56:37.933Z,2338.00
2023-04-10T00:57:37.993Z,2338.00
2023-04-10T00:58:38.000Z,2337.00
2023-04-10T00:59:38.028Z,2323.00
2023-04-10T01:00:38.057Z,2319.00
2023-04-10T01:01:38.198Z,2313.00
2023-04-10T01:02:38.338Z,2319.00
2023-04-10T01:03:38.291Z,2335.00
2023-04-10T01:04:38.339Z,2318.00
2023-04-10T01:05:38.232Z,2317.00
2023-04-10T01:06:38.273Z,2320.00
2023-04-10T01:07:38.297Z,2309.00
2023-04-10T01:08:38.340Z,2317.00
2023-04-10T01:09:38.378Z,2317.00
2023-04-10T01:10:38.408Z,2312.00
2023-04-10T01:11:38.430Z,2317.00
2023-04-10T01:12:38.490Z,2306.00
2023-04-10T01:13:38.502Z,2295.00
2023-04-10T01:14:38.535Z,2312.00
2023-04-10T01:15:38.581Z,2311.00
2023-04-10T01:16:38.656Z,2304.00
2023-04-10T01:17:38.697Z,2304.00
2023-04-10T01:18:38.676Z,2307.00
2023-04-10T01:19:38.715Z,2307.00
2023-04-10T01:20:38.705Z,2308.00
2023-04-10T01:21:38.688Z,2308.00
2023-04-10T01:22:38.670Z,2310.00
2023-04-10T01:23:38.655Z,2309.00
2023-04-10T01:24:38.650Z,2312.00
2023-04-10T01:25:38.650Z,2307.00
2023-04-10T01:26:38.629Z,2298.00
2023-04-10T01:27:38.632Z,2290.00
2023-04-10T01:28:38.616Z,2296.00
2023-04-10T01:29:38.589Z,2289.00
2023-04-10T01:30:38.621Z,2293.00
2023-04-10T01:31:38.595Z,2284.00
2023-04-10T01:32:38.587Z,2280.00
2023-04-10T01:33:38.606Z,2285.00
2023-04-10T01:34:38.694Z,2282.00
2023-04-10T01:35:38.687Z,2281.00
2023-04-10T01:36:38.695Z,2281.00
2023-04-10T01:37:38.690Z,2282.00
2023-04-10T01:38:38.683Z,2284.00
2023-04-10T01:39:38.665Z,2284.00
2023-04-10T01:40:38.646Z,2288.00
2023-04-10T01:41:38.641Z,2286.00
2023-04-10T01:42:38.624Z,2273.00
2023-04-10T01:43:38.601Z,2272.00
2023-04-10T01:44:38.590Z,2267.00
2023-04-10T01:45:38.563Z,2260.00
2023-04-10T01:46:38.577Z,2285.00
2023-04-10T01:47:38.595Z,2272.00
2023-04-10T01:48:38.537Z,2261.00
2023-04-10T01:49:38.551Z,2273.00
2023-04-10T01:50:38.599Z,2252.00
2023-04-10T01:51:38.628Z,2265.00
2023-04-10T01:52:38.681Z,2249.00
2023-04-10T01:53:38.730Z,2249.00
2023-04-10T01:54:38.770Z,2261.00
2023-04-10T01:55:38.812Z,2250.00
2023-04-10T01:56:38.837Z,2254.00
2023-04-10T01:57:38.893Z,2237.00
2023-04-10T01:58:38.933Z,2247.00
2023-04-10T01:59:38.981Z,2242.00
2023-04-10T02:00:39.007Z,2239.00
2023-04-10T02:01:39.168Z,2240.00
2023-04-10T02:02:39.215Z,2237.00
2023-04-10T02:03:39.270Z,2242.00
2023-04-10T02:04:39.454Z,2231.00
2023-04-10T02:05:39.204Z,2232.00
2023-04-10T02:06:39.240Z,2226.00
2023-04-10T02:07:39.298Z,2228.00
2023-04-10T02:08:39.330Z,2221.00
2023-04-10T02:09:39.381Z,2218.00
2023-04-10T02:10:39.432Z,2218.00
2023-04-10T02:11:39.457Z,2215.00
2023-04-10T02:12:39.498Z,2218.00
2023-04-10T02:13:39.537Z,2211.00
2023-04-10T02:14:39.582Z,2210.00
2023-04-10T02:15:39.647Z,2202.00
2023-04-10T02:16:39.669Z,2209.00
2023-04-10T02:17:39.767Z,2217.00
2023-04-10T02:18:39.747Z,2200.00
2023-04-10T02:19:39.801Z,2204.00
2023-04-10T02:20:39.829Z,2199.00
2023-04-10T02:21:39.876Z,2199.00
2023-04-10T02:22:39.936Z,2197.00
2023-04-10T02:23:39.907Z,2197.00
2023-04-10T02:24:39.904Z,2200.00
2023-04-10T02:25:39.900Z,2201.00
2023-04-10T02:26:39.877Z,2199.00
2023-04-10T02:27:39.870Z,2198.00
2023-04-10T02:28:39.852Z,2199.00
2023-04-10T02:29:39.839Z,2203.00
2023-04-10T02:30:39.824Z,2208.00
2023-04-10T02:31:39.894Z,2208.00
2023-04-10T02:32:39.825Z,2206.00
2023-04-10T02:33:39.789Z,2207.00
2023-04-10T02:34:39.799Z,2198.00
2023-04-10T02:35:39.781Z,2195.00
2023-04-10T02:36:39.748Z,2190.00
2023-04-10T02:37:39.750Z,2203.00
2023-04-10T02:38:39.719Z,2197.00
2023-04-10T02:39:39.725Z,2204.00
2023-04-10T02:40:39.721Z,2204.00
2023-04-10T02:41:39.708Z,2206.00
2023-04-10T02:42:39.693Z,2192.00
2023-04-10T02:43:39.676Z,2201.00
2023-04-10T02:44:39.667Z,2192.00
2023-04-10T02:45:39.635Z,2189.00
2023-04-10T02:46:39.657Z,2179.00
2023-04-10T02:47:39.649Z,2183.00
2023-04-10T02:48:39.604Z,2178.00
2023-04-10T02:49:39.590Z,2185.00
2023-04-10T02:50:39.556Z,2177.00
2023-04-10T02:51:39.548Z,2178.00
2023-04-10T02:52:39.537Z,2180.00
2023-04-10T02:53:39.538Z,2180.00
2023-04-10T02:54:39.513Z,2180.00
2023-04-10T02:55:39.505Z,2181.00
2023-04-10T02:56:39.480Z,2178.00
2023-04-10T02:57:39.486Z,2172.00
2023-04-10T02:58:39.449Z,2090.00
2023-04-10T02:59:39.464Z,2011.00
2023-04-10T03:00:39.426Z,1959.00
2023-04-10T03:01:39.622Z,1910.00
2023-04-10T03:02:39.609Z,1856.00
2023-04-10T03:03:39.581Z,1803.00
2023-04-10T03:04:39.471Z,1740.00
2023-04-10T03:05:39.425Z,1678.00
2023-04-10T03:06:39.424Z,1622.00
2023-04-10T03:07:39.437Z,1565.00
2023-04-10T03:08:39.440Z,1531.00
2023-04-10T03:09:39.472Z,1490.00
2023-04-10T03:10:39.441Z,1412.00
2023-04-10T03:11:39.446Z,1342.00
2023-04-10T03:12:39.445Z,1265.00
2023-04-10T03:13:39.413Z,1210.00
2023-04-10T03:14:39.409Z,1142.00
2023-04-10T03:15:39.404Z,1089.00
2023-04-10T03:16:39.435Z,1068.00
2023-04-10T03:17:39.399Z,1026.00
2023-04-10T03:18:39.376Z,977.00
2023-04-10T03:19:39.384Z,970.00
2023-04-10T03:20:39.361Z,919.00
2023-04-10T03:21:39.349Z,832.00
2023-04-10T03:22:39.349Z,775.00
2023-04-10T03:23:39.352Z,691.00
2023-04-10T03:24:39.349Z,662.00
2023-04-10T03:25:39.352Z,650.00
2023-04-10T03:26:39.323Z,626.00
2023-04-10T03:27:39.322Z,613.00
2023-04-10T03:28:39.321Z,582.00
2023-04-10T03:29:39.304Z,560.00
2023-04-10T03:30:39.312Z,553.00
2023-04-10T03:31:39.318Z,543.00
2023-04-10T03:32:39.296Z,524.00
2023-04-10T03:33:39.337Z,500.00
2023-04-10T03:34:39.274Z,499.00
2023-04-10T03:35:39.328Z,500.00
2023-04-10T03:36:39.267Z,488.00
2023-04-10T03:37:39.276Z,472.00
2023-04-10T03:38:39.247Z,449.00
2023-04-10T03:39:39.245Z,421.00
2023-04-10T03:40:39.243Z,400.00
2023-04-10T03:41:39.226Z,400.00
2023-04-10T03:42:39.213Z,400.00
2023-04-10T03:43:39.225Z,444.00
2023-04-10T03:44:39.190Z,500.00
2023-04-10T03:45:39.197Z,513.00
2023-04-10T03:46:39.207Z,517.00
2023-04-10T03:47:39.251Z,529.00
2023-04-10T03:48:39.185Z,525.00
2023-04-10T03:49:39.189Z,516.00
2023-04-10T03:50:39.169Z,506.00
2023-04-10T03:51:39.158Z,500.00
2023-04-10T03:52:39.158Z,501.00
2023-04-10T03:53:39.144Z,502.00
2023-04-10T03:54:39.139Z,500.00
2023-04-10T03:55:39.138Z,501.00
2023-04-10T03:56:39.125Z,503.00
2023-04-10T03:57:39.115Z,508.00
2023-04-10T03:58:39.096Z,518.00
2023-04-10T03:59:39.171Z,508.00
2023-04-10T04:00:39.155Z,502.00
2023-04-10T04:01:39.240Z,500.00
2023-04-10T04:02:39.280Z,500.00
2023-04-10T04:03:39.335Z,500.00
2023-04-10T04:04:39.296Z,500.00
2023-04-10T04:05:39.264Z,503.00
2023-04-10T04:06:39.263Z,500.00
2023-04-10T04:07:39.300Z,501.00
2023-04-10T04:08:39.346Z,501.00
2023-04-10T04:09:39.340Z,500.00
2023-04-10T04:10:39.354Z,499.00
2023-04-10T04:11:39.378Z,499.00
2023-04-10T04:12:39.398Z,498.00
2023-04-10T04:13:39.412Z,500.00
2023-04-10T04:14:39.437Z,499.00
2023-04-10T04:15:39.480Z,500.00
2023-04-10T04:16:39.523Z,501.00
2023-04-10T04:17:39.472Z,500.00
2023-04-10T04:18:39.451Z,487.00
2023-04-10T04:19:39.456Z,474.00
2023-04-10T04:20:39.442Z,459.00
2023-04-10T04:21:39.459Z,449.00
2023-04-10T04:22:39.424Z,498.00
2023-04-10T04:23:39.420Z,500.00
2023-04-10T04:24:39.420Z,504.00
2023-04-10T04:25:39.414Z,500.00
2023-04-10T04:26:39.392Z,498.00
2023-04-10T04:27:39.390Z,495.00
2023-04-10T04:28:39.386Z,495.00
2023-04-10T04:29:39.397Z,491.00
2023-04-10T04:30:39.374Z,475.00
2023-04-10T04:31:39.371Z,467.00
2023-04-10T04:32:39.369Z,456.00
2023-04-10T04:33:39.363Z,447.00
2023-04-10T04:34:39.334Z,451.00
2023-04-10T04:35:39.375Z,500.00
2023-04-10T04:36:39.310Z,505.00
2023-04-10T04:37:39.304Z,509.00
2023-04-10T04:38:39.312Z,500.00
2023-04-10T04:39:39.284Z,516.00
2023-04-10T04:40:39.280Z,519.00
2023-04-10T04:41:39.267Z,511.00
2023-04-10T04:42:39.262Z,507.00
2023-04-10T04:43:39.241Z,501.00
2023-04-10T04:44:39.246Z,500.00
2023-04-10T04:45:39.273Z,507.00
2023-04-10T04:46:39.262Z,519.00
2023-04-10T04:47:39.310Z,525.00
2023-04-10T04:48:39.316Z,537.00
2023-04-10T04:49:39.354Z,558.00
2023-04-10T04:50:39.385Z,576.00
2023-04-10T04:51:39.411Z,601.00
2023-04-10T04:52:39.428Z,622.00
2023-04-10T04:53:39.474Z,636.00
2023-04-10T04:54:39.507Z,638.00
2023-04-10T04:55:39.538Z,647.00
2023-04-10T04:56:39.559Z,655.00
2023-04-10T04:57:39.582Z,663.00
2023-04-10T04:58:39.612Z,665.00
2023-04-10T04:59:39.650Z,657.00
2023-04-10T05:00:39.696Z,644.00
2023-04-10T05:01:39.779Z,637.00
2023-04-10T05:02:39.853Z,624.00
2023-04-10T05:03:39.853Z,625.00
2023-04-10T05:04:39.822Z,631.00
2023-04-10T05:05:39.858Z,609.00
2023-04-10T05:06:39.891Z,605.00
2023-04-10T05:07:39.929Z,599.00
2023-04-10T05:08:39.937Z,592.00
2023-04-10T05:09:39.933Z,600.00
2023-04-10T05:10:39.910Z,601.00
2023-04-10T05:11:39.908Z,598.00
2023-04-10T05:12:39.903Z,589.00
2023-04-10T05:13:39.905Z,579.00
2023-04-10T05:14:39.889Z,573.00
2023-04-10T05:15:39.935Z,576.00
2023-04-10T05:16:39.880Z,586.00
2023-04-10T05:17:39.898Z,597.00
2023-04-10T05:18:39.912Z,613.00
2023-04-10T05:19:39.860Z,628.00
2023-04-10T05:20:39.897Z,637.00
2023-04-10T05:21:39.922Z,651.00
2023-04-10T05:22:39.979Z,647.00
2023-04-10T05:23:40.014Z,646.00
2023-04-10T05:24:40.062Z,641.00
2023-04-10T05:25:40.091Z,638.00
2023-04-10T05:26:40.146Z,633.00
2023-04-10T05:27:40.214Z,635.00
2023-04-10T05:28:40.239Z,637.00
2023-04-10T05:29:40.285Z,628.00
2023-04-10T05:30:40.375Z,608.00
2023-04-10T05:31:40.367Z,602.00
2023-04-10T05:32:40.448Z,592.00
2023-04-10T05:33:40.457Z,598.00
2023-04-10T05:34:40.487Z,600.00
2023-04-10T05:35:40.548Z,596.00
2023-04-10T05:36:40.595Z,589.00
2023-04-10T05:37:40.655Z,598.00
2023-04-10T05:38:40.672Z,601.00
2023-04-10T05:39:40.712Z,605.00
2023-04-10T05:40:40.758Z,610.00
2023-04-10T05:41:40.785Z,611.00
2023-04-10T05:42:40.818Z,613.00
2023-04-10T05:43:40.875Z,621.00
2023-04-10T05:44:43.712Z,634.00
2023-04-10T05:45:40.905Z,642.00
2023-04-10T05:46:40.884Z,652.00
2023-04-10T05:47:40.924Z,652.00
2023-04-10T05:48:40.861Z,656.00
2023-04-10T05:49:40.869Z,654.00
2023-04-10T05:50:40.859Z,667.00
2023-04-10T05:51:40.863Z,703.00
2023-04-10T05:52:40.838Z,732.00
2023-04-10T05:53:40.829Z,754.00
2023-04-10T05:54:40.830Z,762.00
2023-04-10T05:55:40.818Z,777.00
2023-04-10T05:56:40.832Z,810.00
2023-04-10T05:57:40.801Z,836.00
2023-04-10T05:58:40.803Z,865.00
2023-04-10T05:59:40.788Z,905.00
2023-04-10T06:00:40.798Z,921.00
2023-04-10T06:01:40.795Z,926.00
2023-04-10T06:02:40.876Z,950.00
2023-04-10T06:03:41.085Z,974.00
2023-04-10T06:04:40.996Z,977.00
2023-04-10T06:05:40.759Z,997.00
2023-04-10T06:06:40.784Z,1012.00
2023-04-10T06:07:40.765Z,991.00
2023-04-10T06:08:40.751Z,1017.00
2023-04-10T06:09:40.788Z,1039.00
2023-04-10T06:10:40.753Z,1066.00
2023-04-10T06:11:40.768Z,1065.00
2023-04-10T06:12:40.729Z,1053.00
2023-04-10T06:13:40.734Z,1045.00
2023-04-10T06:14:40.721Z,1067.00
2023-04-10T06:15:40.777Z,1078.00
2023-04-10T06:16:40.756Z,1083.00
2023-04-10T06:17:40.766Z,1097.00
2023-04-10T06:18:40.753Z,1139.00
2023-04-10T06:19:40.729Z,1172.00
2023-04-10T06:20:40.736Z,1225.00
2023-04-10T06:21:40.743Z,1260.00
2023-04-10T06:22:40.744Z,1282.00
2023-04-10T06:23:40.751Z,1298.00
2023-04-10T06:24:40.715Z,1316.00
2023-04-10T06:25:40.706Z,1330.00
2023-04-10T06:26:40.706Z,1379.00
2023-04-10T06:27:40.702Z,1399.00
2023-04-10T06:28:40.686Z,1433.00
2023-04-10T06:29:40.686Z,1420.00
2023-04-10T06:30:40.697Z,1441.00
2023-04-10T06:31:40.779Z,1448.00
2023-04-10T06:32:40.719Z,1486.00
2023-04-10T06:33:40.731Z,1516.00
2023-04-10T06:34:40.777Z,1529.00
2023-04-10T06:35:40.815Z,1539.00
2023-04-10T06:36:40.870Z,1544.00
2023-04-10T06:37:40.913Z,1561.00
2023-04-10T06:38:40.963Z,1589.00
2023-04-10T06:39:41.006Z,1620.00
2023-04-10T06:40:41.045Z,1622.00
2023-04-10T06:41:41.107Z,1639.00
2023-04-10T06:42:41.146Z,1645.00
2023-04-10T06:43:41.247Z,1664.00
2023-04-10T06:44:41.255Z,1698.00
2023-04-10T06:45:41.295Z,1700.00
2023-04-10T06:46:41.369Z,1714.00
2023-04-10T06:47:41.440Z,1737.00
2023-04-10T06:48:41.409Z,1755.00
2023-04-10T06:49:41.405Z,1756.00
2023-04-10T06:50:41.405Z,1759.00
2023-04-10T06:51:41.413Z,1764.00
2023-04-10T06:52:41.397Z,1768.00
2023-04-10T06:53:41.388Z,1742.00
2023-04-10T06:54:41.382Z,1726.00
2023-04-10T06:55:41.370Z,1700.00
2023-04-10T06:56:41.382Z,1712.00
2023-04-10T06:57:41.400Z,1699.00
2023-04-10T06:58:41.358Z,1690.00
2023-04-10T06:59:41.363Z,1686.00
2023-04-10T07:00:41.424Z,1672.00
2023-04-10T07:01:41.365Z,1653.00
2023-04-10T07:02:41.337Z,1618.00
2023-04-10T07:03:41.323Z,1593.00
2023-04-10T07:04:41.315Z,1547.00
2023-04-10T07:05:42.343Z,1506.00
2023-04-10T07:06:41.358Z,1451.00
2023-04-10T07:07:41.373Z,1435.00
2023-04-10T07:08:41.392Z,1352.00
2023-04-10T07:09:41.408Z,1280.00
2023-04-10T07:10:41.424Z,1170.00
2023-04-10T07:11:41.427Z,1117.00
2023-04-10T07:12:41.452Z,1003.00
2023-04-10T07:13:41.468Z,944.00
2023-04-10T07:14:41.480Z,853.00
2023-04-10T07:15:41.485Z,756.00
2023-04-10T07:16:41.592Z,689.00
2023-04-10T07:17:41.627Z,644.00
2023-04-10T07:18:41.553Z,609.00
2023-04-10T07:19:41.548Z,578.00
2023-04-10T07:20:41.564Z,554.00
2023-04-10T07:21:41.585Z,524.00
2023-04-10T07:22:41.602Z,500.00
2023-04-10T07:23:41.604Z,500.00
2023-04-10T07:24:41.574Z,459.00
2023-04-10T07:25:41.604Z,429.00
2023-04-10T07:26:41.557Z,400.00
2023-04-10T07:27:41.541Z,400.00
2023-04-10T07:28:41.529Z,400.00
2023-04-10T07:29:41.510Z,400.00
2023-04-10T07:30:41.505Z,400.00
2023-04-10T07:31:41.504Z,405.00
2023-04-10T07:32:41.610Z,434.00
2023-04-10T07:33:41.485Z,468.00
2023-04-10T07:34:41.448Z,500.00
2023-04-10T07:35:41.504Z,500.00
2023-04-10T07:36:41.438Z,499.00
2023-04-10T07:37:41.457Z,500.00
2023-04-10T07:38:41.420Z,500.00
2023-04-10T07:39:41.403Z,478.00
2023-04-10T07:40:41.401Z,460.00
2023-04-10T07:41:41.380Z,427.00
2023-04-10T07:42:41.376Z,406.00
2023-04-10T07:43:41.354Z,400.00
2023-04-10T07:44:44.242Z,417.00
2023-04-10T07:45:41.374Z,447.00
2023-04-10T07:46:41.317Z,487.00
2023-04-10T07:47:41.315Z,501.00
2023-04-10T07:48:41.293Z,500.00
2023-04-10T07:49:41.290Z,500.00
2023-04-10T07:50:41.470Z,501.00
2023-04-10T07:51:41.367Z,483.00
2023-04-10T07:52:41.250Z,469.00
2023-04-10T07:53:41.226Z,467.00
2023-04-10T07:54:41.214Z,463.00
2023-04-10T07:55:41.195Z,444.00
2023-04-10T07:56:41.185Z,475.00
2023-04-10T07:57:42.237Z,500.00
2023-04-10T07:58:41.273Z,504.00
2023-04-10T07:59:41.299Z,500.00
2023-04-10T08:00:41.348Z,500.00
2023-04-10T08:01:41.407Z,500.00
2023-04-10T08:02:41.645Z,500.00
2023-04-10T08:03:41.493Z,500.00
2023-04-10T08:04:41.519Z,499.00
2023-04-10T08:05:41.485Z,500.00
2023-04-10T08:06:41.491Z,507.00
2023-04-10T08:07:41.562Z,500.00
2023-04-10T08:08:41.565Z,503.00
2023-04-10T08:09:41.623Z,500.00
2023-04-10T08:10:41.653Z,503.00
2023-04-10T08:11:41.683Z,500.00
2023-04-10T08:12:41.777Z,505.00
2023-04-10T08:13:41.769Z,502.00
2023-04-10T08:14:41.842Z,520.00
2023-04-10T08:15:41.898Z,509.00
2023-04-10T08:16:41.946Z,500.00
2023-04-10T08:17:41.978Z,508.00
2023-04-10T08:18:41.978Z,519.00
2023-04-10T08:19:42.016Z,512.00
2023-04-10T08:20:42.018Z,500.00
2023-04-10T08:21:42.081Z,501.00
2023-04-10T08:22:42.124Z,500.00
2023-04-10T08:23:42.158Z,499.00
2023-04-10T08:24:42.249Z,500.00
2023-04-10T08:25:42.263Z,503.00
2023-04-10T08:26:42.299Z,502.00
2023-04-10T08:27:42.365Z,500.00
2023-04-10T08:28:42.438Z,500.00
2023-04-10T08:29:42.472Z,500.00
2023-04-10T08:30:42.553Z,500.00
2023-04-10T08:31:42.598Z,502.00
2023-04-10T08:32:42.683Z,500.00
2023-04-10T08:33:42.693Z,500.00
2023-04-10T08:34:42.764Z,500.00
2023-04-10T08:35:42.829Z,505.00
2023-04-10T08:36:42.868Z,509.00
2023-04-10T08:37:46.176Z,507.00
2023-04-10T08:38:42.931Z,500.00
2023-04-10T08:39:42.929Z,500.00
2023-04-10T08:40:42.910Z,502.00
2023-04-10T08:41:42.904Z,496.00
2023-04-10T08:42:42.912Z,493.00
2023-04-10T08:43:42.884Z,483.00
2023-04-10T08:44:42.883Z,479.00
2023-04-10T08:45:42.887Z,477.00
2023-04-10T08:46:42.948Z,501.00
2023-04-10T08:47:42.892Z,500.00
2023-04-10T08:48:42.863Z,500.00
2023-04-10T08:49:42.871Z,501.00
2023-04-10T08:50:42.941Z,500.00
2023-04-10T08:51:43.065Z,503.00
2023-04-10T08:52:43.073Z,500.00
2023-04-10T08:53:43.122Z,500.00
2023-04-10T08:54:43.190Z,507.00
2023-04-10T08:55:43.238Z,511.00
2023-04-10T08:56:43.290Z,502.00
2023-04-10T08:57:50.919Z,511.00
2023-04-10T08:58:44.317Z,500.00
2023-04-10T08:59:43.294Z,509.00
2023-04-10T09:00:43.282Z,517.00
2023-04-10T09:01:43.355Z,539.00
2023-04-10T09:02:43.606Z,589.00
2023-04-10T09:03:43.389Z,625.00
2023-04-10T09:04:43.396Z,695.00
2023-04-10T09:05:43.248Z,807.00
2023-04-10T09:06:43.252Z,944.00
2023-04-10T09:07:43.230Z,1091.00
2023-04-10T09:08:43.240Z,1217.00
2023-04-10T09:09:43.228Z,1272.00
2023-04-10T09:10:43.229Z,1328.00
2023-04-10T09:11:43.218Z,1451.00
2023-04-10T09:12:43.204Z,1575.00
2023-04-10T09:13:43.231Z,1707.00
2023-04-10T09:14:43.265Z,1795.00
2023-04-10T09:15:43.371Z,1960.00
2023-04-10T09:16:43.374Z,2083.00
2023-04-10T09:17:43.458Z,2198.00
2023-04-10T09:18:43.479Z,2306.00
2023-04-10T09:19:43.522Z,2373.00
2023-04-10T09:20:43.570Z,2481.00
2023-04-10T09:21:43.617Z,2569.00
2023-04-10T09:22:43.647Z,2659.00
2023-04-10T09:23:43.691Z,2749.00
2023-04-10T09:24:43.723Z,2829.00
2023-04-10T09:25:43.738Z,2886.00
2023-04-10T09:26:43.765Z,2976.00
2023-04-10T09:27:43.796Z,3050.00
2023-04-10T09:28:43.830Z,3118.00
2023-04-10T09:29:43.844Z,3202.00
2023-04-10T09:30:43.878Z,3266.00
2023-04-10T09:31:43.975Z,3315.00
2023-04-10T09:32:43.947Z,3420.00
2023-04-10T09:33:43.939Z,3482.00
2023-04-10T09:34:43.942Z,3549.00
2023-04-10T09:35:43.970Z,3652.00
2023-04-10T09:36:44.029Z,3697.00
2023-04-10T09:37:43.999Z,3740.00
2023-04-10T09:38:43.998Z,3836.00
2023-04-10T09:39:44.017Z,3901.00
2023-04-10T09:40:44.019Z,3957.00
2023-04-10T09:41:44.032Z,4008.00
2023-04-10T09:42:44.029Z,4081.00
2023-04-10T09:43:44.049Z,4141.00
2023-04-10T09:44:44.033Z,4210.00
2023-04-10T09:45:44.032Z,4276.00
2023-04-10T09:46:44.089Z,4308.00
2023-04-10T09:47:44.128Z,4355.00
2023-04-10T09:48:44.039Z,4422.00
2023-04-10T09:49:44.043Z,4473.00
2023-04-10T09:50:44.034Z,4535.00
2023-04-10T09:51:44.037Z,4560.00
2023-04-10T09:52:44.038Z,4605.00
2023-04-10T09:53:44.046Z,4664.00
2023-04-10T09:54:44.044Z,4724.00
2023-04-10T09:55:44.053Z,4756.00
2023-04-10T09:56:44.049Z,4799.00
2023-04-10T09:57:44.047Z,4842.00
2023-04-10T09:58:44.097Z,4858.00
2023-04-10T09:59:44.056Z,4906.00
2023-04-10T10:00:44.028Z,4944.00
2023-04-10T10:01:44.105Z,4977.00
2023-04-10T10:02:44.158Z,4978.00
2023-04-10T10:03:44.049Z,4989.00
2023-04-10T10:04:44.005Z,5016.00
2023-04-10T10:05:43.961Z,5074.00
2023-04-10T10:06:43.934Z,5151.00
2023-04-10T10:07:43.918Z,4985.00
2023-04-10T10:08:43.897Z,5014.00
2023-04-10T10:09:43.892Z,5071.00
2023-04-10T10:10:43.871Z,4988.00
2023-04-10T10:11:43.858Z,5026.00
2023-04-10T10:12:43.831Z,5092.00
2023-04-10T10:13:43.809Z,5191.00
2023-04-10T10:14:43.808Z,5351.00
2023-04-10T10:15:43.780Z,5379.00
2023-04-10T10:16:43.776Z,5416.00
2023-04-10T10:17:43.784Z,5431.00
2023-04-10T10:18:43.745Z,5455.00
2023-04-10T10:19:43.693Z,5474.00
2023-04-10T10:20:43.679Z,5502.00
2023-04-10T10:21:43.647Z,5521.00
2023-04-10T10:22:43.627Z,5527.00
2023-04-10T10:23:43.625Z,5554.00
2023-04-10T10:24:43.587Z,5565.00
2023-04-10T10:25:43.654Z,5576.00
2023-04-10T10:26:43.537Z,5582.00
2023-04-10T10:27:43.525Z,5594.00
2023-04-10T10:28:43.507Z,5621.00
2023-04-10T10:29:43.496Z,5621.00
2023-04-10T10:30:43.456Z,5641.00
2023-04-10T10:31:43.492Z,5644.00
2023-04-10T10:32:43.430Z,5643.00
2023-04-10T10:33:43.402Z,5657.00
2023-04-10T10:34:43.369Z,5667.00
2023-04-10T10:35:43.368Z,5672.00
2023-04-10T10:36:43.380Z,5679.00
2023-04-10T10:37:43.305Z,5697.00
2023-04-10T10:38:43.303Z,5696.00
2023-04-10T10:39:43.264Z,5720.00
2023-04-10T10:40:43.273Z,5725.00
2023-04-10T10:41:43.289Z,5721.00
2023-04-10T10:42:43.351Z,5736.00
2023-04-10T10:43:43.385Z,5737.00
2023-04-10T10:44:43.457Z,5753.00
2023-04-10T10:45:43.497Z,5762.00
2023-04-10T10:46:43.507Z,5768.00
2023-04-10T10:47:43.609Z,5788.00
2023-04-10T10:48:43.597Z,5787.00
2023-04-10T10:49:43.652Z,5776.00
2023-04-10T10:50:43.678Z,5798.00
2023-04-10T10:51:43.703Z,5795.00
2023-04-10T10:52:43.741Z,5799.00
2023-04-10T10:53:43.799Z,5822.00
2023-04-10T10:54:57.050Z,5811.00
2023-04-10T10:55:44.807Z,5812.00
2023-04-10T10:56:43.783Z,5814.00
2023-04-10T10:57:43.751Z,5821.00
2023-04-10T10:58:43.719Z,5826.00
2023-04-10T10:59:43.709Z,5844.00
2023-04-10T11:00:43.675Z,5859.00
2023-04-10T11:01:43.757Z,5851.00
2023-04-10T11:02:43.771Z,5860.00
2023-04-10T11:03:43.713Z,5846.00
2023-04-10T11:04:43.613Z,5868.00
2023-04-10T11:05:43.622Z,5859.00
2023-04-10T11:06:44.786Z,5861.00
2023-04-10T11:07:43.680Z,5855.00
2023-04-10T11:08:43.711Z,5865.00
2023-04-10T11:09:43.699Z,5865.00
2023-04-10T11:10:43.664Z,5868.00
2023-04-10T11:11:43.639Z,5873.00
2023-04-10T11:12:43.604Z,5880.00
2023-04-10T11:13:43.578Z,5873.00
2023-04-10T11:14:43.557Z,5862.00
2023-04-10T11:15:43.522Z,5834.00
2023-04-10T11:16:43.571Z,5802.00
2023-04-10T11:17:43.531Z,5769.00
2023-04-10T11:18:43.456Z,5769.00
2023-04-10T11:19:43.442Z,5786.00
2023-04-10T11:20:43.449Z,5776.00
2023-04-10T11:21:43.485Z,5766.00
2023-04-10T11:22:43.515Z,5762.00
2023-04-10T11:23:43.558Z,5751.00
2023-04-10T11:24:43.584Z,5737.00
2023-04-10T11:25:43.655Z,5671.00
2023-04-10T11:26:43.693Z,5632.00
2023-04-10T11:27:43.665Z,5595.00
2023-04-10T11:28:43.696Z,5568.00
2023-04-10T11:29:43.751Z,5587.00
2023-04-10T11:30:43.751Z,5619.00
2023-04-10T11:31:43.809Z,5607.00
2023-04-10T11:32:43.850Z,5610.00
2023-04-10T11:33:43.834Z,5590.00
2023-04-10T11:34:43.843Z,5598.00
2023-04-10T11:35:43.845Z,5599.00
2023-04-10T11:36:43.789Z,5601.00
2023-04-10T11:37:43.781Z,5611.00
2023-04-10T11:38:43.778Z,5629.00
2023-04-10T11:39:43.744Z,5636.00
2023-04-10T11:40:43.719Z,5637.00
2023-04-10T11:41:43.681Z,5650.00
2023-04-10T11:42:43.660Z,5651.00
2023-04-10T11:43:43.620Z,5657.00
2023-04-10T11:44:43.638Z,5658.00
2023-04-10T11:45:43.642Z,5670.00
2023-04-10T11:46:43.586Z,5681.00
2023-04-10T11:47:43.619Z,5667.00
2023-04-10T11:48:43.517Z,5676.00
2023-04-10T11:49:43.494Z,5677.00
2023-04-10T11:50:43.458Z,5680.00
2023-04-10T11:51:43.436Z,5689.00
2023-04-10T11:52:43.426Z,5709.00
2023-04-10T11:53:43.428Z,5725.00
2023-04-10T11:54:43.370Z,5733.00
2023-04-10T11:55:43.344Z,5730.00
2023-04-10T11:56:43.323Z,5739.00
2023-04-10T11:57:43.296Z,5732.00
2023-04-10T11:58:43.290Z,5734.00
2023-04-10T11:59:43.252Z,5729.00
2023-04-10T12:00:43.226Z,5740.00
2023-04-10T12:01:43.642Z,5745.00
2023-04-10T12:02:43.228Z,5735.00
2023-04-10T12:03:43.275Z,5748.00
2023-04-10T12:04:43.358Z,5748.00
2023-04-10T12:05:43.119Z,5749.00
2023-04-10T12:06:43.087Z,5751.00
2023-04-10T12:07:43.080Z,5755.00
2023-04-10T12:08:43.048Z,5767.00
2023-04-10T12:09:43.030Z,5762.00
2023-04-10T12:10:43.020Z,5772.00
2023-04-10T12:11:43.017Z,5771.00
2023-04-10T12:12:42.947Z,5769.00
2023-04-10T12:13:42.929Z,5777.00
2023-04-10T12:14:42.916Z,5774.00